This is the latest recevied weather packets stored in our database for station/object AD9CI-15. If no packets are shown the sender has not sent any weather packets the latest 1 day(s).
| Time | Temp. | Humidity | Pressure | Rain* | Wind** | Luminosity | Snow |
|---|---|---|---|---|---|---|---|
| 1778085235 | 11.11° C | 37% | 1012.8 hPa | - | - | - | - |
| 1778085143 | 11.11° C | 37% | 1012.8 hPa | - | - | - | - |
| 1778081647 | 10.56° C | 38% | 1012.8 hPa | - | - | - | - |
| 1778079918 | 10.56° C | 39% | 1012.8 hPa | - | - | - | - |
| 1778078046 | 10° C | 40% | 1012.8 hPa | - | - | - | - |
| 1778077942 | 10° C | 40% | 1012.8 hPa | - | - | - | - |
| 1778076262 | 10° C | 41% | 1012.7 hPa | - | - | - | - |
| 1778074343 | 9.44° C | 44% | 1012.7 hPa | - | - | - | - |
| 1778072664 | 7.78° C | 48% | 1012.5 hPa | - | - | - | - |
| 1778069229 | 6.11° C | 50% | 1012.2 hPa | - | - | - | - |
| 1778069186 | 6.11° C | 50% | 1012.2 hPa | - | - | - | - |
| 1778069063 | 6.11° C | 50% | 1012.2 hPa | - | - | - | - |
| 1778065563 | 5° C | 51% | 1011.5 hPa | - | - | - | - |
| 1778062084 | 5.56° C | 49% | 1011.2 hPa | - | - | - | - |
| 1778060025 | 6.11° C | 48% | 1011.4 hPa | - | - | - | - |
| 1778059943 | 6.11° C | 48% | 1011.4 hPa | - | - | - | - |
| 1778058536 | 6.11° C | 48% | 1011.3 hPa | - | - | - | - |
| 1778058262 | 6.11° C | 48% | 1011.3 hPa | - | - | - | - |
| 1778054874 | 6.11° C | 47% | 1010.7 hPa | - | - | - | - |
| 1778054813 | 6.11° C | 47% | 1010.7 hPa | - | - | - | - |
| 1778054757 | 6.11° C | 47% | 1010.7 hPa | - | - | - | - |
| 1778054662 | 6.11° C | 47% | 1010.7 hPa | - | - | - | - |
| 1778052836 | 6.67° C | 45% | 1010.7 hPa | - | - | - | - |
| 1778052742 | 6.67° C | 45% | 1010.7 hPa | - | - | - | - |
| 1778051200 | 6.67° C | 45% | 1010.8 hPa | - | - | - | - |
* Rain since midnight (hover to see other rain measurements)
** Current wind speed in m/s (hover to see current wind gust speed)